Terminal Aerodrome Forecast
Issued by NWS

Home | Current Version | Previous Version | Graphics & Text | Print | Product List | Glossary On
Versions: 1 2 3 4 5 6 7 8 9 10 11 12 13 14 15 16 17 18 19 20 21 22 23 24 25 26 27 28
949
FTUS43 KBIS 171120
TAFDIK
TAF
KDIK 171120Z 1712/1812 13022G31KT P6SM BKN200
     FM172100 14016G26KT P6SM VCSH OVC045
     FM172300 14011KT 6SM -RA OVC030
     FM180200 08007KT 6SM -RASN OVC015
     FM180400 06005KT 5SM -SN OVC008
     FM180900 32006KT P6SM OVC008=

USA.gov is the U.S. government's official web portal to all federal, state and local government web resources and services.